createdAt,value
2019-06-07T00:01:50.639Z,34.00
2019-06-07T00:04:21.513Z,34.17
2019-06-07T00:06:51.623Z,33.97
2019-06-07T00:09:22.472Z,34.07
2019-06-07T00:11:52.734Z,32.50
2019-06-07T00:14:22.763Z,35.07
2019-06-07T00:16:52.665Z,32.80
2019-06-07T00:19:24.326Z,33.20
2019-06-07T00:22:15.743Z,35.27
2019-06-07T00:24:25.861Z,31.60
2019-06-07T00:26:58.919Z,34.13
2019-06-07T00:29:27.369Z,32.57
2019-06-07T00:31:57.176Z,34.57
2019-06-07T00:34:26.917Z,36.97
2019-06-07T00:36:56.836Z,39.90
2019-06-07T00:39:29.073Z,36.70
2019-06-07T00:41:58.799Z,41.20
2019-06-07T00:44:28.806Z,35.80
2019-06-07T00:46:58.474Z,40.23
2019-06-07T00:49:40.700Z,38.83
2019-06-07T00:51:59.927Z,35.70
2019-06-07T00:54:29.883Z,44.13
2019-06-07T00:56:59.741Z,49.13
2019-06-07T00:59:29.912Z,47.47
2019-06-07T01:01:59.937Z,40.77
2019-06-07T01:04:29.719Z,43.23
2019-06-07T01:06:59.634Z,39.07
2019-06-07T01:09:29.563Z,34.07
2019-06-07T01:11:59.709Z,37.77
2019-06-07T01:14:29.473Z,37.67
2019-06-07T01:17:22.239Z,36.90
2019-06-07T01:19:30.992Z,40.17
2019-06-07T01:22:00.653Z,40.80
2019-06-07T01:24:30.556Z,37.03
2019-06-07T01:27:00.534Z,38.93
2019-06-07T01:29:31.204Z,40.77
2019-06-07T01:32:01.086Z,39.97
2019-06-07T01:34:30.900Z,36.23
2019-06-07T01:37:00.578Z,49.13
2019-06-07T01:39:31.878Z,45.27
2019-06-07T01:42:02.004Z,41.80
2019-06-07T01:44:31.977Z,39.93
2019-06-07T01:47:01.891Z,43.63
2019-06-07T01:49:31.735Z,37.33
2019-06-07T01:52:01.508Z,46.27
2019-06-07T01:57:02.864Z,37.10
2019-06-07T01:59:32.910Z,39.27
2019-06-07T02:02:02.847Z,34.23
2019-06-07T02:04:33.496Z,39.47
2019-06-07T02:07:03.671Z,29.53
2019-06-07T02:09:33.668Z,36.37
2019-06-07T02:12:24.636Z,32.90
2019-06-07T02:14:36.097Z,32.17
2019-06-07T02:17:05.967Z,32.17
2019-06-07T02:19:35.953Z,36.30
2019-06-07T02:22:05.908Z,33.07
2019-06-07T02:24:36.618Z,49.23
2019-06-07T02:27:06.710Z,46.63
2019-06-07T02:29:36.667Z,57.07
2019-06-07T02:32:06.448Z,61.10
2019-06-07T02:34:39.556Z,50.97
2019-06-07T02:37:08.037Z,44.33
2019-06-07T02:39:40.811Z,44.67
2019-06-07T02:42:09.264Z,44.87
2019-06-07T02:44:40.321Z,48.13
2019-06-07T02:47:10.323Z,41.47
2019-06-07T02:49:42.034Z,41.37
2019-06-07T02:52:13.253Z,41.47
2019-06-07T02:54:43.178Z,36.53
2019-06-07T02:57:12.960Z,34.20
2019-06-07T03:00:05.745Z,36.43
2019-06-07T03:02:14.845Z,38.60
2019-06-07T03:04:45.102Z,37.00
2019-06-07T03:07:16.228Z,36.20
2019-06-07T03:09:47.033Z,33.87
2019-06-07T03:12:19.205Z,34.67
2019-06-07T03:14:49.405Z,37.57
2019-06-07T03:17:40.844Z,31.27
2019-06-07T03:20:12.893Z,39.07
2019-06-07T03:22:43.893Z,43.20
2019-06-07T03:25:13.794Z,31.70
2019-06-07T03:27:49.949Z,31.33
2019-06-07T03:32:49.536Z,32.87
2019-06-07T03:35:19.579Z,27.13
2019-06-07T03:37:49.436Z,31.37
2019-06-07T03:40:19.358Z,35.80
2019-06-07T03:42:49.319Z,34.80
2019-06-07T03:45:19.207Z,34.77
2019-06-07T03:47:49.156Z,30.87
2019-06-07T03:50:18.962Z,34.37
2019-06-07T03:52:48.722Z,40.97
2019-06-07T03:55:18.590Z,39.10
2019-06-07T03:58:30.137Z,41.27
2019-06-07T04:00:20.008Z,38.13
2019-06-07T04:02:49.861Z,39.77
2019-06-07T04:05:19.541Z,38.57
2019-06-07T04:07:49.382Z,39.30
2019-06-07T04:10:19.018Z,37.30
2019-06-07T04:12:48.773Z,43.13
2019-06-07T04:15:18.795Z,40.60
2019-06-07T04:18:01.346Z,37.43
2019-06-07T04:20:20.259Z,39.57
2019-06-07T04:22:50.128Z,44.00
2019-06-07T04:25:20.018Z,40.57
2019-06-07T04:27:49.828Z,38.43
2019-06-07T04:30:39.561Z,34.97
2019-06-07T04:33:10.039Z,48.40
2019-06-07T04:35:43.121Z,52.50
2019-06-07T04:38:14.512Z,37.87
2019-06-07T04:40:44.828Z,35.27
2019-06-07T04:43:14.603Z,32.70
2019-06-07T04:45:50.876Z,31.87
2019-06-07T04:48:16.071Z,39.37
2019-06-07T04:50:47.655Z,34.20
2019-06-07T04:53:17.553Z,33.67
2019-06-07T04:55:47.481Z,37.03
2019-06-07T04:58:17.384Z,38.23
2019-06-07T05:00:54.124Z,39.47
2019-06-07T05:03:18.912Z,36.43
2019-06-07T05:05:48.902Z,37.03
2019-06-07T05:08:28.001Z,35.03
2019-06-07T05:10:50.284Z,37.77
2019-06-07T05:13:20.204Z,34.87
2019-06-07T05:15:49.975Z,32.07
2019-06-07T05:18:19.821Z,34.30
2019-06-07T05:20:49.555Z,26.67
2019-06-07T05:24:00.122Z,24.80
2019-06-07T05:25:51.093Z,31.43
2019-06-07T05:28:21.024Z,33.67
2019-06-07T05:31:03.790Z,27.30
2019-06-07T05:33:22.746Z,32.40
2019-06-07T05:35:52.706Z,47.87
2019-06-07T05:38:22.507Z,38.77
2019-06-07T05:40:52.372Z,35.90
2019-06-07T05:43:29.203Z,37.57
2019-06-07T05:45:59.200Z,42.90
2019-06-07T05:48:28.936Z,52.97
2019-06-07T05:50:58.664Z,35.37
2019-06-07T05:53:28.748Z,34.70
2019-06-07T05:55:58.480Z,31.03
2019-06-07T05:58:28.207Z,24.63
2019-06-07T06:01:41.035Z,32.27
2019-06-07T06:03:29.714Z,27.37
2019-06-07T06:05:59.482Z,27.00
2019-06-07T06:08:29.307Z,25.73
2019-06-07T06:10:59.189Z,22.70
2019-06-07T06:13:29.122Z,20.03
2019-06-07T06:16:01.981Z,23.27
2019-06-07T06:18:31.729Z,19.43
2019-06-07T06:21:16.048Z,19.60
2019-06-07T06:23:33.096Z,18.47
2019-06-07T06:26:02.957Z,18.13
2019-06-07T06:28:32.823Z,18.13
2019-06-07T06:31:02.580Z,23.23
2019-06-07T06:33:34.751Z,30.87
2019-06-07T06:36:04.213Z,53.47
2019-06-07T06:38:34.042Z,23.90
2019-06-07T06:41:15.076Z,23.77
2019-06-07T06:43:35.514Z,24.27
2019-06-07T06:46:05.512Z,28.93
2019-06-07T06:48:35.464Z,32.77
2019-06-07T06:51:05.404Z,31.87
2019-06-07T06:53:35.175Z,26.70
2019-06-07T06:56:05.023Z,23.00
2019-06-07T06:59:18.675Z,22.50
2019-06-07T07:01:07.276Z,20.27
2019-06-07T07:03:57.430Z,17.90
2019-06-07T07:06:25.332Z,20.73
2019-06-07T07:08:44.266Z,19.73
2019-06-07T07:11:14.858Z,16.93
2019-06-07T07:13:49.201Z,19.90
2019-06-07T07:16:16.649Z,15.93
2019-06-07T07:18:47.600Z,14.93
2019-06-07T07:21:18.873Z,15.30
2019-06-07T07:24:15.173Z,13.93
2019-06-07T07:26:20.399Z,15.63
2019-06-07T07:28:54.014Z,20.27
2019-06-07T07:31:21.969Z,14.00
2019-06-07T07:34:30.893Z,15.40
2019-06-07T07:36:38.926Z,13.87
2019-06-07T07:39:04.495Z,13.67
2019-06-07T07:41:28.431Z,16.90
2019-06-07T07:44:05.819Z,13.60
2019-06-07T07:46:30.634Z,17.30
2019-06-07T07:49:00.727Z,14.90
2019-06-07T07:51:30.505Z,14.03
2019-06-07T07:54:10.234Z,12.73
2019-06-07T07:56:32.219Z,12.82
2019-06-07T07:59:02.832Z,13.80
2019-06-07T08:01:32.823Z,11.30
2019-06-07T08:04:02.583Z,12.77
2019-06-07T08:06:32.471Z,11.20
2019-06-07T08:09:02.300Z,10.88
2019-06-07T08:11:32.525Z,11.40
2019-06-07T08:14:02.427Z,10.58
2019-06-07T08:16:32.601Z,11.38
2019-06-07T08:19:04.295Z,35.30
2019-06-07T08:21:34.031Z,12.75
2019-06-07T08:24:05.340Z,23.15
2019-06-07T08:26:35.400Z,14.60
2019-06-07T08:29:05.415Z,13.50
2019-06-07T08:31:35.944Z,18.27
2019-06-07T08:34:06.053Z,11.00
2019-06-07T08:36:42.310Z,11.75
2019-06-07T08:39:09.201Z,14.03
2019-06-07T08:41:53.493Z,13.18
2019-06-07T08:44:23.170Z,15.75
2019-06-07T08:46:42.301Z,14.18
2019-06-07T08:49:12.155Z,12.68
2019-06-07T08:51:43.282Z,13.65
2019-06-07T08:54:22.469Z,12.82
2019-06-07T08:56:44.415Z,14.55
2019-06-07T08:59:14.283Z,15.00
2019-06-07T09:01:44.046Z,13.95
2019-06-07T09:04:13.908Z,12.37
2019-06-07T09:09:15.421Z,12.45
2019-06-07T09:11:45.308Z,12.53
2019-06-07T09:14:15.167Z,12.37
2019-06-07T09:16:45.005Z,11.88
2019-06-07T09:19:14.953Z,12.55
2019-06-07T09:21:44.760Z,11.68
2019-06-07T09:24:14.431Z,11.22
2019-06-07T09:26:44.334Z,11.12
2019-06-07T09:29:14.336Z,11.25
2019-06-07T09:31:52.610Z,10.75
2019-06-07T09:34:16.077Z,11.30
2019-06-07T09:36:46.033Z,11.05
2019-06-07T09:39:15.997Z,11.08
2019-06-07T09:41:50.125Z,11.22
2019-06-07T09:44:24.626Z,10.93
2019-06-07T09:47:07.902Z,13.38
2019-06-07T09:49:31.437Z,9.13
2019-06-07T09:51:52.034Z,10.38
2019-06-07T09:55:04.127Z,10.10
2019-06-07T09:56:53.417Z,9.78
2019-06-07T09:59:23.300Z,9.63
2019-06-07T10:01:53.056Z,9.90
2019-06-07T10:04:31.312Z,10.82
2019-06-07T10:06:54.400Z,9.93
2019-06-07T10:11:55.822Z,9.55
2019-06-07T10:14:25.687Z,11.50
2019-06-07T10:16:55.600Z,9.23
2019-06-07T10:19:25.543Z,9.28
2019-06-07T10:21:55.415Z,9.13
2019-06-07T10:24:26.110Z,9.48
2019-06-07T10:26:55.793Z,9.03
2019-06-07T10:29:25.600Z,8.60
2019-06-07T10:31:55.558Z,9.98
2019-06-07T10:34:25.437Z,8.68
2019-06-07T10:36:55.344Z,8.30
2019-06-07T10:39:25.222Z,8.75
2019-06-07T10:41:54.860Z,8.78
2019-06-07T10:44:24.561Z,10.50
2019-06-07T10:46:54.431Z,8.98
2019-06-07T10:49:24.325Z,9.80
2019-06-07T10:51:54.235Z,11.20
2019-06-07T10:54:29.785Z,9.33
2019-06-07T10:56:55.787Z,9.33
2019-06-07T10:59:25.732Z,10.13
2019-06-07T11:01:55.458Z,8.85
2019-06-07T11:04:25.370Z,10.63
2019-06-07T11:06:55.243Z,9.20
2019-06-07T11:09:25.020Z,9.15
2019-06-07T11:11:54.897Z,11.03
2019-06-07T11:14:24.597Z,8.65
2019-06-07T11:16:54.579Z,9.88
2019-06-07T11:19:24.346Z,8.80
2019-06-07T11:21:54.234Z,9.60
2019-06-07T11:24:24.838Z,8.68
2019-06-07T11:26:55.164Z,8.60
2019-06-07T11:29:24.822Z,8.33
2019-06-07T11:31:54.765Z,8.63
2019-06-07T11:34:24.707Z,9.70
2019-06-07T11:36:54.476Z,9.30
2019-06-07T11:39:24.270Z,9.33
2019-06-07T11:41:54.037Z,9.38
2019-06-07T11:44:23.817Z,9.00
2019-06-07T11:46:53.770Z,9.65
2019-06-07T11:49:24.910Z,8.15
2019-06-07T11:51:54.682Z,8.88
2019-06-07T11:54:24.615Z,8.95
2019-06-07T11:56:55.646Z,8.70
2019-06-07T11:59:25.502Z,9.63
2019-06-07T12:01:55.158Z,8.13
2019-06-07T12:04:34.430Z,8.15
2019-06-07T12:06:57.791Z,8.50
2019-06-07T12:09:28.168Z,7.37
2019-06-07T12:11:58.170Z,7.65
2019-06-07T12:14:28.048Z,8.00
2019-06-07T12:16:57.855Z,9.63
2019-06-07T12:19:27.614Z,7.75
2019-06-07T12:21:57.517Z,7.50
2019-06-07T12:24:27.083Z,8.20
2019-06-07T12:26:56.953Z,9.20
2019-06-07T12:29:26.749Z,7.85
2019-06-07T12:31:56.540Z,7.58
2019-06-07T12:34:26.470Z,8.30
2019-06-07T12:36:56.423Z,7.80
2019-06-07T12:39:26.329Z,7.80
2019-06-07T12:41:57.455Z,7.70
2019-06-07T12:44:27.332Z,7.72
2019-06-07T12:46:56.951Z,8.05
2019-06-07T12:49:28.572Z,7.15
2019-06-07T12:51:58.337Z,8.60
2019-06-07T12:54:28.263Z,7.65
2019-06-07T12:56:58.093Z,7.47
2019-06-07T12:59:27.966Z,8.15
2019-06-07T13:02:02.312Z,7.90
2019-06-07T13:04:29.456Z,8.00
2019-06-07T13:06:59.165Z,7.30
2019-06-07T13:09:29.040Z,8.20
2019-06-07T13:11:58.776Z,7.65
2019-06-07T13:14:28.589Z,7.95
2019-06-07T13:16:58.311Z,8.25
2019-06-07T13:19:28.583Z,7.95
2019-06-07T13:21:58.404Z,7.62
2019-06-07T13:24:28.793Z,9.28
2019-06-07T13:26:59.833Z,8.18
2019-06-07T13:29:32.319Z,8.23
2019-06-07T13:32:03.407Z,8.18
2019-06-07T13:34:33.187Z,9.83
2019-06-07T13:37:03.113Z,10.40
2019-06-07T13:39:33.170Z,10.45
2019-06-07T13:42:03.021Z,8.15
2019-06-07T13:44:33.052Z,7.45
2019-06-07T13:47:02.921Z,7.42
2019-06-07T13:49:32.563Z,10.40
2019-06-07T13:52:02.477Z,7.53
2019-06-07T13:54:32.886Z,6.40
2019-06-07T13:57:03.384Z,11.00
2019-06-07T13:59:33.265Z,8.35
2019-06-07T14:02:04.383Z,7.95
2019-06-07T14:04:34.005Z,11.00
2019-06-07T14:07:03.961Z,9.90
2019-06-07T14:09:33.880Z,8.35
2019-06-07T14:12:03.660Z,12.85
2019-06-07T14:14:33.590Z,9.18
2019-06-07T14:17:05.251Z,8.83
2019-06-07T14:19:34.938Z,7.40
2019-06-07T14:22:04.718Z,9.73
2019-06-07T14:24:34.506Z,9.68
2019-06-07T14:27:07.066Z,18.05
2019-06-07T14:29:38.004Z,13.48
2019-06-07T14:32:08.446Z,10.25
2019-06-07T14:34:38.305Z,7.03
2019-06-07T14:37:08.575Z,7.05
2019-06-07T14:39:38.392Z,6.95
2019-06-07T14:42:10.362Z,7.37
2019-06-07T14:44:39.845Z,9.63
2019-06-07T14:47:09.550Z,9.70
2019-06-07T14:49:39.333Z,6.50
2019-06-07T14:52:08.990Z,7.35
2019-06-07T14:54:39.485Z,7.40
2019-06-07T14:57:09.379Z,8.90
2019-06-07T14:59:39.246Z,7.90
2019-06-07T15:02:09.161Z,6.58
2019-06-07T15:04:42.159Z,9.10
2019-06-07T15:07:15.769Z,7.22
2019-06-07T15:09:45.679Z,11.40
2019-06-07T15:12:25.044Z,7.97
2019-06-07T15:14:48.261Z,9.55
2019-06-07T15:17:18.075Z,8.43
2019-06-07T15:19:49.280Z,8.03
2019-06-07T15:22:19.050Z,7.03
2019-06-07T15:24:48.874Z,8.95
2019-06-07T15:27:18.982Z,9.08
2019-06-07T15:29:48.890Z,7.50
2019-06-07T15:32:18.801Z,7.33
2019-06-07T15:34:48.471Z,7.15
2019-06-07T15:37:18.356Z,6.97
2019-06-07T15:39:48.090Z,7.05
2019-06-07T15:42:17.867Z,7.92
2019-06-07T15:44:47.674Z,7.28
2019-06-07T15:47:18.758Z,7.67
2019-06-07T15:49:48.639Z,8.23
2019-06-07T15:52:19.737Z,9.53
2019-06-07T15:54:49.585Z,7.45
2019-06-07T15:57:19.386Z,9.15
2019-06-07T15:59:49.121Z,7.90
2019-06-07T16:02:20.085Z,9.33
2019-06-07T16:04:49.886Z,10.82
2019-06-07T16:07:19.739Z,9.00
2019-06-07T16:09:49.521Z,10.03
2019-06-07T16:12:19.339Z,8.65
2019-06-07T16:14:49.404Z,9.73
2019-06-07T16:17:19.183Z,8.95
2019-06-07T16:19:48.895Z,10.15
2019-06-07T16:22:18.621Z,8.48
2019-06-07T16:24:48.519Z,9.00
2019-06-07T16:27:18.432Z,8.53
2019-06-07T16:29:48.487Z,8.38
2019-06-07T16:32:19.473Z,8.35
2019-06-07T16:34:49.092Z,9.45
2019-06-07T16:37:19.069Z,8.20
2019-06-07T16:39:48.823Z,9.38
2019-06-07T16:42:18.736Z,10.25
2019-06-07T16:44:48.966Z,10.20
2019-06-07T16:47:18.997Z,9.35
2019-06-07T16:49:49.190Z,9.73
2019-06-07T16:52:19.077Z,10.75
2019-06-07T16:54:48.839Z,9.33
2019-06-07T16:57:18.634Z,9.15
2019-06-07T16:59:50.496Z,10.32
2019-06-07T17:02:20.113Z,9.83
2019-06-07T17:04:51.186Z,14.75
2019-06-07T17:07:20.288Z,12.15
2019-06-07T17:09:50.142Z,10.93
2019-06-07T17:12:20.105Z,10.50
2019-06-07T17:14:49.907Z,10.93
2019-06-07T17:17:19.706Z,11.48
2019-06-07T17:19:49.435Z,12.85
2019-06-07T17:22:19.287Z,14.20
2019-06-07T17:24:49.887Z,12.58
2019-06-07T17:27:19.981Z,19.48
2019-06-07T17:29:50.104Z,13.60
2019-06-07T17:32:20.123Z,13.32
2019-06-07T17:34:50.425Z,15.32
2019-06-07T17:37:20.505Z,14.45
2019-06-07T17:39:50.950Z,15.97
2019-06-07T17:42:20.639Z,16.15
2019-06-07T17:44:51.465Z,17.63
2019-06-07T17:47:21.511Z,20.73
2019-06-07T17:49:52.242Z,18.97
2019-06-07T17:52:22.102Z,18.10
2019-06-07T17:54:52.441Z,18.73
2019-06-07T17:57:22.314Z,18.70
2019-06-07T17:59:52.696Z,15.30
2019-06-07T18:02:22.547Z,17.17
2019-06-07T18:04:53.621Z,16.43
2019-06-07T18:07:24.767Z,17.30
2019-06-07T18:09:55.888Z,19.57
2019-06-07T18:12:25.582Z,16.57
2019-06-07T18:14:55.782Z,18.80
2019-06-07T18:17:34.701Z,18.60
2019-06-07T18:19:57.423Z,20.53
2019-06-07T18:22:27.318Z,20.03
2019-06-07T18:24:57.370Z,20.50
2019-06-07T18:27:27.354Z,20.13
2019-06-07T18:29:57.358Z,20.80
2019-06-07T18:32:28.651Z,21.13
2019-06-07T18:35:00.257Z,21.60
2019-06-07T18:37:30.049Z,19.90
2019-06-07T18:40:00.361Z,19.83
2019-06-07T18:42:30.212Z,16.60
2019-06-07T18:45:00.155Z,19.57
2019-06-07T18:47:30.239Z,21.37
2019-06-07T18:50:00.190Z,20.13
2019-06-07T18:52:33.488Z,20.33
2019-06-07T18:55:03.225Z,19.10
2019-06-07T18:57:33.007Z,19.53
2019-06-07T19:00:03.081Z,19.40
2019-06-07T19:02:32.923Z,18.10
2019-06-07T19:05:02.970Z,18.67
2019-06-07T19:07:32.823Z,17.87
2019-06-07T19:10:02.797Z,18.33
2019-06-07T19:12:32.617Z,21.03
2019-06-07T19:15:02.543Z,19.10
2019-06-07T19:17:32.440Z,17.77
2019-06-07T19:20:03.489Z,20.00
2019-06-07T19:22:33.224Z,21.00
2019-06-07T19:25:02.897Z,19.27
2019-06-07T19:27:33.163Z,17.70
2019-06-07T19:30:03.300Z,21.07
2019-06-07T19:32:33.395Z,18.73
2019-06-07T19:35:03.291Z,18.80
2019-06-07T19:37:34.584Z,18.30
2019-06-07T19:40:04.837Z,19.53
2019-06-07T19:42:34.495Z,19.40
2019-06-07T19:45:27.059Z,18.43
2019-06-07T19:47:36.996Z,18.13
2019-06-07T19:50:07.290Z,19.90
2019-06-07T19:52:38.573Z,19.23
2019-06-07T19:55:09.943Z,17.33
2019-06-07T19:57:41.040Z,17.57
2019-06-07T20:00:14.953Z,16.93
2019-06-07T20:02:43.323Z,16.70
2019-06-07T20:05:14.585Z,16.67
2019-06-07T20:07:45.771Z,17.00
2019-06-07T20:10:16.135Z,17.83
2019-06-07T20:12:46.012Z,17.13
2019-06-07T20:15:28.523Z,22.03
2019-06-07T20:17:48.534Z,21.10
2019-06-07T20:20:19.077Z,18.40
2019-06-07T20:22:48.814Z,16.63
2019-06-07T20:25:19.496Z,20.20
2019-06-07T20:27:49.367Z,19.47
2019-06-07T20:30:20.466Z,19.87
2019-06-07T20:32:50.156Z,17.03
2019-06-07T20:35:20.251Z,15.67
2019-06-07T20:37:49.930Z,16.93
2019-06-07T20:40:24.532Z,16.37
2019-06-07T20:42:52.659Z,16.03
2019-06-07T20:45:32.969Z,14.53
2019-06-07T20:47:53.928Z,16.80
2019-06-07T20:50:23.630Z,15.07
2019-06-07T20:52:53.476Z,14.63
2019-06-07T20:55:23.247Z,13.17
2019-06-07T20:57:52.953Z,14.33
2019-06-07T21:00:23.352Z,13.77
2019-06-07T21:02:53.208Z,13.90
2019-06-07T21:05:23.020Z,13.70
2019-06-07T21:07:52.893Z,14.57
2019-06-07T21:10:23.069Z,18.37
2019-06-07T21:12:52.895Z,16.47
2019-06-07T21:15:22.865Z,16.10
2019-06-07T21:17:52.855Z,16.37
2019-06-07T21:20:22.638Z,16.57
2019-06-07T21:22:52.715Z,19.90
2019-06-07T21:25:22.479Z,20.43
2019-06-07T21:27:52.392Z,18.50
2019-06-07T21:30:22.656Z,19.20
2019-06-07T21:32:52.411Z,18.90
2019-06-07T21:35:22.120Z,20.97
2019-06-07T21:37:52.002Z,18.43
2019-06-07T21:40:21.649Z,25.37
2019-06-07T21:42:51.484Z,26.03
2019-06-07T21:45:21.396Z,19.77
2019-06-07T21:47:51.196Z,17.87
2019-06-07T21:50:21.423Z,19.87
2019-06-07T21:52:51.132Z,19.83
2019-06-07T21:55:21.216Z,20.17
2019-06-07T21:57:51.088Z,21.03
2019-06-07T22:00:26.781Z,22.20
2019-06-07T22:02:56.525Z,20.87
2019-06-07T22:05:26.144Z,21.60
2019-06-07T22:07:56.000Z,20.43
2019-06-07T22:10:26.514Z,20.33
2019-06-07T22:12:56.412Z,22.40
2019-06-07T22:15:33.988Z,18.53
2019-06-07T22:17:57.974Z,18.67
2019-06-07T22:20:27.827Z,19.83
2019-06-07T22:22:57.778Z,16.33
2019-06-07T22:25:27.646Z,15.93
2019-06-07T22:27:57.672Z,17.10
2019-06-07T22:30:27.643Z,14.97
2019-06-07T22:32:57.410Z,15.30
2019-06-07T22:35:27.459Z,16.90
2019-06-07T22:37:57.218Z,16.53
2019-06-07T22:40:27.157Z,16.20
2019-06-07T22:42:57.111Z,17.30
2019-06-07T22:45:26.973Z,16.80
2019-06-07T22:47:58.133Z,16.07
2019-06-07T22:50:27.977Z,17.97
2019-06-07T22:52:57.838Z,18.63
2019-06-07T22:55:27.785Z,19.13
2019-06-07T22:58:00.136Z,19.73
2019-06-07T23:00:31.730Z,19.60
2019-06-07T23:03:01.665Z,19.23
2019-06-07T23:05:31.588Z,19.77
2019-06-07T23:08:01.444Z,19.27
2019-06-07T23:10:31.265Z,22.33
2019-06-07T23:13:01.115Z,23.13
2019-06-07T23:15:30.802Z,20.27
2019-06-07T23:18:00.544Z,19.83
2019-06-07T23:20:30.221Z,19.57
2019-06-07T23:23:00.279Z,17.87
2019-06-07T23:25:30.184Z,18.47
2019-06-07T23:27:59.980Z,19.30
2019-06-07T23:30:29.976Z,20.10
2019-06-07T23:32:59.780Z,20.03
2019-06-07T23:35:29.601Z,22.47
2019-06-07T23:37:59.320Z,20.07
2019-06-07T23:40:29.139Z,19.77
2019-06-07T23:42:58.892Z,18.93
2019-06-07T23:45:28.847Z,18.00
2019-06-07T23:47:58.581Z,19.57
2019-06-07T23:50:28.516Z,20.60
2019-06-07T23:52:58.454Z,21.97
2019-06-07T23:55:29.662Z,21.93
2019-06-07T23:57:59.578Z,21.07
